Time;durP1;ratioP1;P1;durP2;ratioP2;P2;SDS_P1;SDS_P2;PMS_P1;PMS_P2;Temp;Humidity;BMP_temperature;BMP_pressure;BME280_temperature;BME280_humidity;BME280_pressure;Samples;Min_cycle;Max_cycle;Signal;HPM_P1;HPM_P2
2023/07/30 00:01:49;;;;;;;10.93;7.03;;;19.40;99.90;;;;;;5013457;28;20054;-57
2023/07/30 00:04:15;;;;;;;8.70;6.75;;;19.40;99.90;;;;;;5045990;28;20135;-57
2023/07/30 00:06:41;;;;;;;12.20;7.07;;;19.40;99.90;;;;;;5065069;28;20056;-57
2023/07/30 00:09:07;;;;;;;9.88;7.32;;;19.30;99.90;;;;;;5064902;28;20044;-57
2023/07/30 00:11:33;;;;;;;10.70;6.68;;;19.30;99.90;;;;;;5057228;28;20072;-57
2023/07/30 00:13:59;;;;;;;9.13;7.13;;;19.30;99.90;;;;;;5080277;28;20070;-57
2023/07/30 00:16:28;;;;;;;11.20;7.03;;;19.20;99.90;;;;;;5077498;28;20647;-57
2023/07/30 00:18:54;;;;;;;10.60;7.05;;;19.20;99.90;;;;;;5083269;28;20048;-57
2023/07/30 00:21:20;;;;;;;11.38;6.65;;;19.30;99.90;;;;;;5078880;28;20089;-57
2023/07/30 00:23:46;;;;;;;8.98;6.78;;;19.30;99.90;;;;;;5081012;28;20040;-57
2023/07/30 00:26:12;;;;;;;10.48;6.97;;;19.20;99.90;;;;;;5079261;28;20056;-57
2023/07/30 00:28:38;;;;;;;14.98;7.35;;;19.20;99.90;;;;;;5080729;28;20045;-57
2023/07/30 00:31:04;;;;;;;10.00;7.20;;;19.20;99.90;;;;;;5072365;28;20080;-57
2023/07/30 00:33:30;;;;;;;15.27;7.18;;;19.20;99.90;;;;;;5036362;28;20048;-57
2023/07/30 00:35:56;;;;;;;10.50;6.93;;;19.10;99.90;;;;;;5031389;28;20050;-57
2023/07/30 00:38:22;;;;;;;9.48;7.22;;;19.20;99.90;;;;;;5024616;28;20076;-57
2023/07/30 00:40:48;;;;;;;13.80;7.30;;;19.20;99.90;;;;;;5003386;28;20055;-57
2023/07/30 00:43:14;;;;;;;9.88;6.95;;;19.10;99.90;;;;;;5006200;28;20057;-57
2023/07/30 00:45:42;;;;;;;11.00;6.65;;;19.00;99.90;;;;;;5031101;28;20041;-57
2023/07/30 00:48:12;;;;;;;14.50;7.32;;;19.00;99.90;;;;;;5009405;28;20042;-57
2023/07/30 00:50:40;;;;;;;11.05;7.90;;;19.00;99.90;;;;;;5006796;28;20046;-58
2023/07/30 00:53:08;;;;;;;12.90;7.00;;;19.00;99.90;;;;;;5017863;28;20084;-57
2023/07/30 00:55:36;;;;;;;12.90;7.13;;;18.90;99.90;;;;;;5022160;28;20040;-57
2023/07/30 00:58:03;;;;;;;12.18;7.60;;;18.90;99.90;;;;;;5017208;28;20037;-57
2023/07/30 01:00:31;;;;;;;11.73;6.97;;;18.90;99.90;;;;;;4998687;28;20072;-57
2023/07/30 01:02:58;;;;;;;10.15;7.38;;;18.90;99.90;;;;;;5008192;28;20102;-57
2023/07/30 01:05:23;;;;;;;10.13;7.55;;;18.90;99.90;;;;;;4978118;28;20054;-57
2023/07/30 01:07:50;;;;;;;11.85;6.93;;;18.90;99.90;;;;;;5018325;28;20094;-57
2023/07/30 01:10:16;;;;;;;13.75;7.30;;;18.90;99.90;;;;;;5042002;28;20057;-57
2023/07/30 01:12:43;;;;;;;10.80;7.03;;;18.80;99.90;;;;;;5039868;28;20072;-57
2023/07/30 01:15:10;;;;;;;12.60;6.68;;;18.90;99.90;;;;;;5058362;28;20052;-57
2023/07/30 01:17:37;;;;;;;11.15;7.05;;;18.90;99.90;;;;;;4969282;28;20128;-57
2023/07/30 01:20:03;;;;;;;9.63;6.35;;;18.80;99.90;;;;;;4945539;28;20043;-57
2023/07/30 01:22:29;;;;;;;12.40;7.15;;;18.90;99.90;;;;;;4919306;28;20532;-57
2023/07/30 01:24:56;;;;;;;10.90;6.95;;;18.90;99.90;;;;;;4945124;28;20043;-57
2023/07/30 01:27:31;;;;;;;11.35;6.70;;;18.80;99.90;;;;;;4973589;28;20045;-57
2023/07/30 01:30:08;;;;;;;12.68;7.95;;;18.90;99.90;;;;;;5034211;28;20067;-57
2023/07/30 01:32:35;;;;;;;9.35;7.05;;;18.80;99.90;;;;;;5018274;28;20125;-57
2023/07/30 01:35:02;;;;;;;9.52;6.75;;;18.70;99.90;;;;;;5030210;28;20029;-57
2023/07/30 01:37:29;;;;;;;9.93;7.68;;;18.80;99.90;;;;;;5020520;28;20184;-57
2023/07/30 01:39:56;;;;;;;11.80;7.10;;;18.70;99.90;;;;;;4994060;28;20033;-57
2023/07/30 01:42:29;;;;;;;10.68;7.05;;;18.70;99.90;;;;;;4988309;28;20043;-57
2023/07/30 01:44:55;;;;;;;8.90;7.18;;;18.70;99.90;;;;;;4977106;28;20038;-57
2023/07/30 01:47:21;;;;;;;9.30;6.60;;;18.70;99.90;;;;;;5026265;28;20049;-57
2023/07/30 01:49:47;;;;;;;11.48;7.15;;;18.70;99.90;;;;;;4996907;28;20132;-57
2023/07/30 01:52:13;;;;;;;13.23;7.70;;;18.70;99.90;;;;;;4991552;28;20049;-57
2023/07/30 01:54:39;;;;;;;10.05;7.07;;;18.70;99.90;;;;;;4971044;28;20055;-57
2023/07/30 01:57:05;;;;;;;10.63;7.18;;;18.70;99.90;;;;;;4984082;28;20986;-57
2023/07/30 01:59:31;;;;;;;12.85;7.30;;;18.70;99.90;;;;;;4985615;28;20056;-58
2023/07/30 02:01:57;;;;;;;11.07;7.38;;;18.70;99.90;;;;;;4960685;28;20042;-57
2023/07/30 02:04:23;;;;;;;10.13;6.80;;;18.70;99.90;;;;;;4981512;28;20034;-57
2023/07/30 02:06:49;;;;;;;11.23;6.78;;;18.60;99.90;;;;;;4987565;28;20052;-57
2023/07/30 02:09:15;;;;;;;8.85;6.78;;;18.70;99.90;;;;;;5022866;28;20033;-57
2023/07/30 02:11:41;;;;;;;7.93;6.45;;;18.70;99.90;;;;;;4981781;28;20139;-58
2023/07/30 02:14:09;;;;;;;8.50;6.47;;;18.60;99.90;;;;;;5011350;28;20449;-57
2023/07/30 02:16:35;;;;;;;10.10;6.57;;;18.60;99.90;;;;;;4999280;28;20047;-57
2023/07/30 02:19:01;;;;;;;10.35;6.85;;;18.60;99.90;;;;;;5016980;28;27934;-57
2023/07/30 02:21:27;;;;;;;12.13;7.63;;;18.60;99.90;;;;;;4996006;28;20036;-57
2023/07/30 02:23:53;;;;;;;11.63;7.85;;;18.60;99.90;;;;;;5022627;28;20426;-57
2023/07/30 02:26:19;;;;;;;10.90;7.47;;;18.50;99.90;;;;;;5017975;28;20132;-57
2023/07/30 02:28:45;;;;;;;10.93;7.68;;;18.50;99.90;;;;;;5012856;28;20055;-57
2023/07/30 02:31:11;;;;;;;10.50;7.30;;;18.50;99.90;;;;;;4992684;28;20048;-57
2023/07/30 02:33:37;;;;;;;9.60;7.65;;;18.40;99.90;;;;;;4983560;28;20049;-57
2023/07/30 02:36:04;;;;;;;13.05;7.22;;;18.40;99.90;;;;;;5039762;28;20489;-57
2023/07/30 02:38:30;;;;;;;11.68;7.30;;;18.40;99.90;;;;;;5029479;28;20041;-57
2023/07/30 02:40:56;;;;;;;12.10;7.50;;;18.40;99.90;;;;;;5009248;28;20479;-57
2023/07/30 02:43:22;;;;;;;13.48;7.43;;;18.30;99.90;;;;;;5033518;28;20041;-57
2023/07/30 02:45:49;;;;;;;10.48;7.57;;;18.40;99.90;;;;;;5018332;28;20463;-57
2023/07/30 02:48:15;;;;;;;12.95;7.97;;;18.30;99.90;;;;;;4985792;28;21163;-57
2023/07/30 02:50:41;;;;;;;10.88;8.27;;;18.30;99.90;;;;;;4955139;28;21876;-57
2023/07/30 02:53:07;;;;;;;14.15;7.65;;;18.20;99.90;;;;;;4977625;28;22898;-57
2023/07/30 02:55:33;;;;;;;12.18;7.60;;;18.30;99.90;;;;;;5008988;28;23095;-57
2023/07/30 02:57:59;;;;;;;11.88;7.50;;;18.30;99.90;;;;;;5008640;28;23281;-57
2023/07/30 03:00:25;;;;;;;10.45;6.47;;;18.20;99.90;;;;;;4933054;28;24441;-57
2023/07/30 03:02:51;;;;;;;12.32;7.28;;;18.20;99.90;;;;;;4926293;28;42936;-57
2023/07/30 03:05:17;;;;;;;13.43;7.78;;;18.20;99.90;;;;;;4926725;28;44591;-57
2023/07/30 03:07:43;;;;;;;12.13;8.27;;;18.20;99.90;;;;;;4973910;28;44486;-57
2023/07/30 03:10:10;;;;;;;14.23;7.78;;;18.30;99.90;;;;;;4950853;28;46330;-57
2023/07/30 03:12:36;;;;;;;13.32;7.80;;;18.30;99.90;;;;;;4901974;28;47597;-57
2023/07/30 03:15:02;;;;;;;11.15;7.55;;;18.30;99.90;;;;;;4991109;28;48091;-57
2023/07/30 03:17:28;;;;;;;11.23;7.25;;;18.20;99.90;;;;;;5019193;28;49283;-57
2023/07/30 03:19:54;;;;;;;12.77;7.80;;;18.20;99.90;;;;;;4970721;28;51470;-57
2023/07/30 03:22:20;;;;;;;11.55;7.10;;;18.20;99.90;;;;;;4957225;28;50498;-57
2023/07/30 03:24:47;;;;;;;9.65;6.70;;;18.20;99.90;;;;;;4943669;28;28855;-57
2023/07/30 03:27:13;;;;;;;15.50;8.55;;;18.10;99.90;;;;;;4973011;28;24865;-57
2023/07/30 03:29:39;;;;;;;11.70;7.63;;;18.10;99.90;;;;;;4958222;28;24755;-57
2023/07/30 03:32:06;;;;;;;11.32;8.52;;;18.10;99.90;;;;;;4984464;28;48433;-57
2023/07/30 03:34:32;;;;;;;9.25;6.95;;;18.10;99.90;;;;;;5014262;28;48506;-57
2023/07/30 03:37:00;;;;;;;12.05;7.97;;;18.00;99.90;;;;;;5017398;28;25530;-57
2023/07/30 03:39:26;;;;;;;11.25;8.05;;;18.00;99.90;;;;;;5010893;28;31193;-57
2023/07/30 03:41:53;;;;;;;12.55;8.23;;;18.00;99.90;;;;;;4975889;28;49057;-57
2023/07/30 03:44:19;;;;;;;13.93;8.60;;;18.10;99.90;;;;;;4976105;28;49371;-57
2023/07/30 03:46:46;;;;;;;13.73;8.18;;;18.10;99.90;;;;;;4991309;28;25029;-57
2023/07/30 03:49:12;;;;;;;13.07;7.70;;;18.10;99.90;;;;;;4982443;28;33020;-57
2023/07/30 03:51:41;;;;;;;13.05;8.50;;;18.00;99.90;;;;;;4990440;28;49752;-57
2023/07/30 03:54:07;;;;;;;16.40;8.73;;;18.10;99.90;;;;;;5012276;28;48992;-57
2023/07/30 03:56:33;;;;;;;13.45;8.40;;;18.10;99.90;;;;;;5008247;28;48564;-57
2023/07/30 03:58:59;;;;;;;13.43;8.20;;;18.10;99.90;;;;;;4970377;28;49615;-57
2023/07/30 04:01:25;;;;;;;13.77;8.35;;;18.10;99.90;;;;;;4981039;28;49753;-57
2023/07/30 04:03:52;;;;;;;11.23;7.78;;;18.00;99.90;;;;;;4984988;28;48743;-57
2023/07/30 04:06:17;;;;;;;10.48;7.93;;;18.10;99.90;;;;;;4989960;28;24853;-57
2023/07/30 04:08:43;;;;;;;12.05;8.52;;;18.10;99.90;;;;;;5002857;28;37721;-57
2023/07/30 04:11:09;;;;;;;14.25;7.47;;;18.10;99.90;;;;;;4977117;28;24787;-57
2023/07/30 04:13:35;;;;;;;19.58;8.65;;;18.20;99.90;;;;;;5000329;28;38107;-57
2023/07/30 04:16:01;;;;;;;14.38;8.20;;;18.20;99.90;;;;;;4983045;28;49415;-57
2023/07/30 04:20:56;;;;;;;11.85;7.80;;;18.20;99.90;;;;;;5001822;28;49671;-58
2023/07/30 04:23:22;;;;;;;10.25;8.27;;;18.30;99.90;;;;;;5005532;28;24742;-57
2023/07/30 04:25:52;;;;;;;12.27;8.30;;;18.30;99.90;;;;;;4920295;28;49201;-57
2023/07/30 04:28:17;;;;;;;14.52;8.52;;;18.40;99.90;;;;;;4950264;28;49894;-57
2023/07/30 04:30:46;;;;;;;15.43;9.02;;;18.40;99.90;;;;;;4938462;28;48757;-57
2023/07/30 04:33:14;;;;;;;14.52;9.20;;;18.40;99.90;;;;;;4956910;28;49443;-57
2023/07/30 04:35:41;;;;;;;14.05;8.55;;;18.40;99.90;;;;;;4955832;28;49589;-57
2023/07/30 04:38:08;;;;;;;15.75;8.85;;;18.40;99.90;;;;;;4972348;28;49503;-57
2023/07/30 04:40:34;;;;;;;16.73;9.10;;;18.50;99.90;;;;;;4953911;28;70974;-57
2023/07/30 04:43:00;;;;;;;13.38;8.25;;;18.50;99.90;;;;;;4956455;28;96947;-57
2023/07/30 04:45:27;;;;;;;15.70;9.23;;;18.60;99.90;;;;;;4938027;28;74589;-57
2023/07/30 04:47:54;;;;;;;15.60;9.25;;;18.60;99.90;;;;;;4888663;28;73923;-57
2023/07/30 04:50:20;;;;;;;12.95;9.20;;;18.60;99.90;;;;;;4847122;28;49592;-57
2023/07/30 04:52:46;;;;;;;13.50;10.13;;;18.70;99.90;;;;;;4896913;28;49451;-57
2023/07/30 04:55:12;;;;;;;13.65;8.65;;;18.70;99.90;;;;;;4835585;28;73897;-57
2023/07/30 04:57:38;;;;;;;12.23;8.88;;;18.80;99.90;;;;;;4844488;28;48422;-57
2023/07/30 05:00:05;;;;;;;13.80;9.20;;;18.70;99.90;;;;;;4888066;28;49110;-57
2023/07/30 05:02:31;;;;;;;12.88;9.40;;;18.80;99.90;;;;;;4861839;28;49515;-57
2023/07/30 05:04:57;;;;;;;13.93;9.02;;;18.90;99.90;;;;;;4913255;28;49428;-57
2023/07/30 05:07:23;;;;;;;12.63;8.85;;;19.00;99.90;;;;;;4924380;28;57378;-58
2023/07/30 05:09:50;;;;;;;15.88;9.27;;;19.20;99.90;;;;;;4936823;28;54145;-57
2023/07/30 05:12:16;;;;;;;13.80;9.05;;;19.30;99.90;;;;;;4918810;28;44254;-57
2023/07/30 05:15:02;;;;;;;15.18;10.13;;;19.40;99.90;;;;;;4965581;28;42263;-57
2023/07/30 05:20:26;;;;;;;16.15;9.82;;;19.70;99.90;;;;;;5152424;27;20130;-57
2023/07/30 05:22:52;;;;;;;15.30;9.07;;;19.90;99.90;;;;;;5151158;27;20043;-57
2023/07/30 05:25:18;;;;;;;15.05;9.32;;;19.90;99.90;;;;;;5124187;27;20122;-57
2023/07/30 05:27:44;;;;;;;14.48;8.77;;;20.00;99.90;;;;;;5116415;27;20043;-57
2023/07/30 05:30:10;;;;;;;12.23;8.75;;;20.20;99.90;;;;;;5120556;27;20223;-57
2023/07/30 05:32:36;;;;;;;14.10;8.73;;;20.30;99.90;;;;;;5118547;27;20637;-57
2023/07/30 05:35:02;;;;;;;18.20;8.98;;;20.40;99.90;;;;;;5111093;27;20055;-57
2023/07/30 05:37:28;;;;;;;13.60;9.05;;;20.40;99.90;;;;;;5098902;27;20059;-57
2023/07/30 05:39:54;;;;;;;20.90;10.55;;;20.50;99.90;;;;;;5122605;27;20055;-57
2023/07/30 05:42:20;;;;;;;17.10;8.82;;;20.60;99.90;;;;;;5078199;27;1464773;-57
2023/07/30 05:44:46;;;;;;;17.95;8.98;;;20.70;99.90;;;;;;5084926;28;20123;-57
2023/07/30 05:47:12;;;;;;;14.25;8.68;;;20.80;99.90;;;;;;5082356;28;20063;-57
2023/07/30 05:49:38;;;;;;;15.27;9.07;;;21.00;99.90;;;;;;5079399;28;20454;-57
2023/07/30 05:52:04;;;;;;;15.90;8.40;;;21.10;99.90;;;;;;5083016;28;20040;-58
2023/07/30 05:54:30;;;;;;;16.17;8.63;;;21.20;99.90;;;;;;5081159;28;20075;-57
2023/07/30 05:56:56;;;;;;;19.27;9.15;;;21.20;99.90;;;;;;5064370;28;20134;-57
2023/07/30 05:59:22;;;;;;;18.02;8.77;;;21.40;99.90;;;;;;5071512;28;20098;-57
2023/07/30 06:01:48;;;;;;;15.13;8.48;;;21.40;99.90;;;;;;5076379;28;20055;-57
2023/07/30 06:04:14;;;;;;;17.73;9.18;;;21.60;99.90;;;;;;5079503;28;20043;-57
2023/07/30 06:06:40;;;;;;;15.93;9.05;;;21.80;99.90;;;;;;5071865;28;20068;-57
2023/07/30 06:09:07;;;;;;;14.15;8.18;;;21.90;99.90;;;;;;5077064;28;20032;-57
2023/07/30 06:11:33;;;;;;;14.57;8.48;;;22.00;99.90;;;;;;5080228;28;20052;-57
2023/07/30 06:13:59;;;;;;;16.20;8.93;;;21.90;99.90;;;;;;5078178;28;20041;-57
2023/07/30 06:16:25;;;;;;;17.42;8.57;;;22.10;99.90;;;;;;5075464;28;20055;-57
2023/07/30 06:18:51;;;;;;;16.48;9.13;;;22.30;99.90;;;;;;5053326;28;20057;-57
2023/07/30 06:21:17;;;;;;;13.05;7.88;;;22.40;99.90;;;;;;5047548;28;20061;-57
2023/07/30 06:23:43;;;;;;;13.13;8.32;;;22.60;99.90;;;;;;5037322;28;20067;-58
2023/07/30 06:26:09;;;;;;;17.83;9.07;;;22.80;99.90;;;;;;5034830;28;20045;-57
2023/07/30 06:28:35;;;;;;;13.10;8.13;;;22.90;99.90;;;;;;5033502;28;20049;-57
2023/07/30 06:31:04;;;;;;;13.63;8.52;;;23.00;99.90;;;;;;5016970;28;20044;-57
2023/07/30 06:33:30;;;;;;;18.33;8.70;;;23.20;99.90;;;;;;5019657;28;20048;-57
2023/07/30 06:35:56;;;;;;;12.70;8.00;;;23.20;99.90;;;;;;5009401;28;20095;-57
2023/07/30 06:38:22;;;;;;;14.70;8.65;;;23.20;99.90;;;;;;4981031;28;20438;-57
2023/07/30 06:40:48;;;;;;;12.90;8.98;;;23.30;99.90;;;;;;4988297;28;20041;-57
2023/07/30 06:43:14;;;;;;;17.92;9.20;;;23.50;99.90;;;;;;4985754;28;20121;-57
2023/07/30 06:45:40;;;;;;;14.35;9.00;;;23.70;99.90;;;;;;4965279;28;20468;-57
2023/07/30 06:48:06;;;;;;;17.20;8.60;;;23.90;99.90;;;;;;4978528;28;20050;-57
2023/07/30 06:50:32;;;;;;;18.98;9.07;;;24.10;99.90;;;;;;4999059;28;20483;-58
2023/07/30 06:52:58;;;;;;;13.60;8.35;;;24.30;99.90;;;;;;4982739;28;20043;-57
2023/07/30 06:55:25;;;;;;;16.40;8.48;;;24.60;99.90;;;;;;4983206;28;20034;-57
2023/07/30 06:57:51;;;;;;;13.38;7.97;;;24.70;99.90;;;;;;5016352;28;20034;-57
2023/07/30 07:00:21;;;;;;;16.85;8.23;;;24.80;99.90;;;;;;5015650;28;20049;-57
2023/07/30 07:02:48;;;;;;;11.60;7.70;;;25.10;99.90;;;;;;5021546;28;20056;-57
2023/07/30 07:05:15;;;;;;;14.77;8.25;;;25.20;99.90;;;;;;5010408;28;20111;-57
2023/07/30 07:07:41;;;;;;;15.80;8.98;;;25.30;99.90;;;;;;5003346;28;20101;-57
2023/07/30 07:10:07;;;;;;;12.93;8.35;;;25.60;99.90;;;;;;5015391;28;20486;-57
2023/07/30 07:12:33;;;;;;;17.85;9.77;;;25.80;99.90;;;;;;5012180;28;20864;-57
2023/07/30 07:15:01;;;;;;;13.45;8.77;;;26.00;99.90;;;;;;5012515;28;21255;-58
2023/07/30 07:17:28;;;;;;;16.60;8.80;;;26.30;99.90;;;;;;4999938;28;22415;-59
2023/07/30 07:19:54;;;;;;;14.88;7.93;;;26.50;99.90;;;;;;5013964;28;22626;-57
2023/07/30 07:22:20;;;;;;;11.82;7.57;;;26.80;98.70;;;;;;5020626;28;23616;-57
2023/07/30 07:24:46;;;;;;;13.52;8.40;;;27.00;97.80;;;;;;5022083;28;27703;-57
2023/07/30 07:27:12;;;;;;;13.75;7.97;;;26.90;97.00;;;;;;5002590;28;24705;-57
2023/07/30 07:29:38;;;;;;;12.52;7.85;;;27.00;96.40;;;;;;5022553;28;24659;-57
2023/07/30 07:32:04;;;;;;;11.35;7.75;;;27.40;95.30;;;;;;5026710;28;28433;-57
2023/07/30 07:34:30;;;;;;;15.60;8.00;;;27.70;95.90;;;;;;5025989;28;25035;-57
2023/07/30 07:36:56;;;;;;;13.60;8.10;;;28.10;92.90;;;;;;5030965;28;29776;-57
2023/07/30 07:39:22;;;;;;;14.10;8.05;;;28.40;93.10;;;;;;5026922;28;30603;-57
2023/07/30 07:41:48;;;;;;;10.55;6.97;;;28.80;90.60;;;;;;5010995;28;25533;-57
2023/07/30 07:44:14;;;;;;;11.65;7.20;;;29.20;92.70;;;;;;5017907;28;32371;-58
2023/07/30 07:46:41;;;;;;;15.68;8.10;;;29.10;87.20;;;;;;5019976;28;33054;-57
2023/07/30 07:49:08;;;;;;;11.85;7.00;;;29.20;86.20;;;;;;5028700;28;33336;-57
2023/07/30 07:51:34;;;;;;;11.02;7.32;;;29.50;84.40;;;;;;5025945;28;33760;-57
2023/07/30 07:54:00;;;;;;;17.80;8.70;;;29.70;83.30;;;;;;5025310;28;35336;-58
2023/07/30 07:56:26;;;;;;;14.38;8.13;;;30.00;83.50;;;;;;5025320;28;25092;-57
2023/07/30 07:58:52;;;;;;;12.73;7.80;;;30.00;80.60;;;;;;5020329;28;35947;-58
2023/07/30 08:01:18;;;;;;;15.07;8.48;;;30.40;82.70;;;;;;5015135;28;36803;-58
2023/07/30 08:03:44;;;;;;;16.23;9.20;;;30.80;81.10;;;;;;5026047;28;37967;-57
2023/07/30 08:06:10;;;;;;;13.45;8.60;;;31.20;79.90;;;;;;5025346;28;38150;-58
2023/07/30 08:08:36;;;;;;;14.38;8.75;;;31.50;80.60;;;;;;5001998;28;39331;-58
2023/07/30 08:11:07;;;;;;;13.00;8.38;;;31.80;73.00;;;;;;5019554;28;39853;-57
2023/07/30 08:13:34;;;;;;;12.80;8.25;;;31.30;74.40;;;;;;5001835;28;25095;-58
2023/07/30 08:16:00;;;;;;;13.73;8.52;;;31.10;73.80;;;;;;5023438;28;42269;-57
2023/07/30 08:18:26;;;;;;;18.35;9.68;;;31.50;76.60;;;;;;4997264;28;24981;-58
2023/07/30 08:20:52;;;;;;;15.05;9.40;;;31.90;68.90;;;;;;4959941;28;43611;-58
2023/07/30 08:23:18;;;;;;;17.52;9.82;;;32.10;66.00;;;;;;4977181;28;43993;-58
2023/07/30 08:25:44;;;;;;;23.33;10.48;;;32.10;63.00;;;;;;4980243;28;25029;-58
2023/07/30 08:28:10;;;;;;;18.92;9.25;;;32.00;63.50;;;;;;4975458;28;46917;-58
2023/07/30 08:30:36;;;;;;;14.75;8.70;;;32.00;62.80;;;;;;4966989;28;48070;-58
2023/07/30 08:33:02;;;;;;;17.55;9.55;;;31.50;61.10;;;;;;4989261;28;25375;-58
2023/07/30 08:35:28;;;;;;;18.40;9.88;;;31.00;66.10;;;;;;4971920;28;49337;-58
2023/07/30 08:37:54;;;;;;;18.95;8.95;;;31.30;71.00;;;;;;4997308;28;49263;-58
2023/07/30 08:40:24;;;;;;;17.17;9.40;;;31.60;66.00;;;;;;5003827;28;49588;-58
2023/07/30 08:42:53;;;;;;;21.33;10.50;;;31.50;65.00;;;;;;5014443;28;33367;-58
2023/07/30 08:45:19;;;;;;;27.37;12.20;;;31.40;65.70;;;;;;5011287;28;49910;-58
2023/07/30 08:47:47;;;;;;;16.60;10.60;;;31.60;62.90;;;;;;5011328;28;35129;-58
2023/07/30 08:50:13;;;;;;;20.70;10.77;;;31.10;66.10;;;;;;5000320;28;49064;-58
2023/07/30 08:52:40;;;;;;;19.83;9.63;;;31.00;66.30;;;;;;5010507;28;48846;-58
2023/07/30 08:55:07;;;;;;;11.77;8.20;;;31.40;60.70;;;;;;4996848;28;48794;-59
2023/07/30 08:57:33;;;;;;;13.88;9.05;;;31.80;60.90;;;;;;5009933;28;36924;-58
2023/07/30 09:00:08;;;;;;;15.57;8.52;;;32.30;63.80;;;;;;5006826;28;37347;-58
2023/07/30 09:02:39;;;;;;;11.55;7.95;;;32.60;60.50;;;;;;4967262;28;49239;-58
2023/07/30 09:05:06;;;;;;;10.50;6.50;;;33.10;62.90;;;;;;5001674;28;49268;-58
2023/07/30 09:07:32;;;;;;;10.45;6.82;;;33.40;58.10;;;;;;4993467;28;38973;-58
2023/07/30 09:09:58;;;;;;;10.65;7.18;;;33.70;57.40;;;;;;4985658;28;24844;-57
2023/07/30 09:12:31;;;;;;;8.95;6.55;;;33.80;60.30;;;;;;5001687;28;40091;-58
2023/07/30 09:14:57;;;;;;;11.32;7.13;;;33.90;54.10;;;;;;5003172;28;40085;-58
2023/07/30 09:17:24;;;;;;;11.73;7.20;;;33.60;54.80;;;;;;5003501;28;41500;-58
2023/07/30 09:19:51;;;;;;;9.73;6.70;;;33.20;58.20;;;;;;5007301;28;41274;-58
2023/07/30 09:22:41;;;;;;;10.65;6.75;;;32.50;57.80;;;;;;5001580;28;24980;-58
2023/07/30 09:25:07;;;;;;;;;;;32.00;56.20;;;;;;4994540;28;24684;-58
2023/07/30 09:27:34;;;;;;;8.88;6.85;;;31.70;57.90;;;;;;4987696;28;24738;-58
2023/07/30 09:30:04;;;;;;;14.13;6.97;;;31.50;62.00;;;;;;4978304;28;48685;-58
2023/07/30 09:32:32;;;;;;;13.43;7.40;;;31.30;58.60;;;;;;4961512;28;42745;-58
2023/07/30 09:35:06;;;;;;;9.43;6.35;;;31.00;61.30;;;;;;4979721;28;24599;-58
2023/07/30 09:37:36;;;;;;;11.82;7.03;;;31.00;57.50;;;;;;4977886;28;48525;-58
2023/07/30 09:40:02;;;;;;;11.48;7.32;;;31.00;64.00;;;;;;4977826;28;49527;-58
2023/07/30 09:42:30;;;;;;;28.95;18.50;;;31.10;62.00;;;;;;4981571;28;48745;-58
2023/07/30 09:44:59;;;;;;;64.50;35.95;;;31.10;67.20;;;;;;4979001;28;49430;-58
2023/07/30 09:47:27;;;;;;;49.92;28.55;;;31.30;62.00;;;;;;4940554;28;44992;-58
2023/07/30 09:49:54;;;;;;;84.25;50.92;;;31.60;60.80;;;;;;4913695;28;70884;-58
2023/07/30 09:52:21;;;;;;;41.67;29.05;;;31.60;62.30;;;;;;4903380;28;49987;-58
2023/07/30 09:54:52;;;;;;;17.40;10.13;;;32.30;60.80;;;;;;4920323;28;48186;-58
2023/07/30 09:57:18;;;;;;;20.98;13.30;;;32.40;57.70;;;;;;4950935;28;49123;-58
2023/07/30 09:59:44;;;;;;;18.10;10.75;;;32.50;57.00;;;;;;4969455;28;27270;-58
2023/07/30 10:02:11;;;;;;;19.10;13.30;;;32.90;58.40;;;;;;4972285;28;47950;-58
2023/07/30 10:04:43;;;;;;;10.75;8.00;;;33.40;57.20;;;;;;4949340;28;48548;-58
2023/07/30 10:07:16;;;;;;;11.02;8.88;;;33.70;58.30;;;;;;4963193;28;49644;-58
2023/07/30 10:09:45;;;;;;;10.93;7.35;;;34.00;56.80;;;;;;4959678;28;49509;-58
2023/07/30 10:12:17;;;;;;;12.38;8.25;;;34.40;54.00;;;;;;4955779;28;74882;-58
2023/07/30 10:14:44;;;;;;;11.52;8.27;;;34.50;55.90;;;;;;4961068;28;59085;-58
2023/07/30 10:17:11;;;;;;;12.23;7.68;;;34.20;58.20;;;;;;4934434;28;57406;-58
2023/07/30 10:19:37;;;;;;;130.65;82.32;;;34.00;51.40;;;;;;4935828;28;49942;-58
2023/07/30 10:22:12;;;;;;;14.65;9.57;;;33.60;53.20;;;;;;4944496;28;75219;-58
2023/07/30 10:24:38;;;;;;;63.53;37.80;;;33.30;54.10;;;;;;4948231;28;48950;-58
2023/07/30 10:27:12;;;;;;;37.67;20.17;;;33.00;55.80;;;;;;4934399;28;54514;-58
2023/07/30 10:29:41;;;;;;;11.10;7.22;;;33.00;55.00;;;;;;4927265;28;65944;-58
2023/07/30 10:32:08;;;;;;;11.10;8.27;;;32.90;55.10;;;;;;4930531;28;43626;-58
2023/07/30 10:34:46;;;;;;;10.77;7.95;;;32.50;58.90;;;;;;4930839;28;25170;-58
2023/07/30 10:37:19;;;;;;;12.75;8.75;;;32.30;58.20;;;;;;4936053;28;24910;-58
2023/07/30 10:39:48;;;;;;;12.27;9.75;;;31.70;63.00;;;;;;4948609;28;44513;-58
2023/07/30 10:42:14;;;;;;;16.20;10.75;;;31.50;65.60;;;;;;4956110;28;25468;-58
2023/07/30 10:44:44;;;;;;;13.75;9.15;;;31.20;65.40;;;;;;4934426;28;25095;-58
2023/07/30 10:47:11;;;;;;;16.15;9.48;;;31.00;62.80;;;;;;4946909;28;25038;-58
2023/07/30 10:49:38;;;;;;;14.65;9.48;;;30.80;67.50;;;;;;4945841;28;43567;-58
2023/07/30 10:52:04;;;;;;;12.60;8.10;;;30.80;63.10;;;;;;4940098;28;24987;-58
2023/07/30 10:54:34;;;;;;;9.68;8.27;;;30.50;66.90;;;;;;4936814;28;24507;-58
2023/07/30 10:57:00;;;;;;;20.70;11.63;;;30.30;71.40;;;;;;4913282;28;24826;-58
2023/07/30 10:59:32;;;;;;;15.35;8.98;;;30.10;71.70;;;;;;4914905;28;24889;-58
2023/07/30 11:01:58;;;;;;;14.23;10.23;;;29.90;70.90;;;;;;4924325;28;24947;-58
2023/07/30 11:04:24;;;;;;;11.73;8.43;;;29.50;74.50;;;;;;4928713;28;42862;-58
2023/07/30 11:06:51;;;;;;;19.00;10.32;;;29.30;78.50;;;;;;4939303;28;43209;-58
2023/07/30 11:09:25;;;;;;;16.70;10.30;;;29.20;77.80;;;;;;4926784;28;24933;-58
2023/07/30 11:11:54;;;;;;;20.52;12.05;;;29.10;77.00;;;;;;4921936;28;48427;-57
2023/07/30 11:14:22;;;;;;;13.32;9.18;;;28.90;84.80;;;;;;4937967;28;44750;-57
2023/07/30 11:19:27;;;;;;;26.73;12.70;;;28.60;83.80;;;;;;5154690;27;20153;-57
2023/07/30 11:21:55;;;;;;;15.02;10.60;;;28.30;94.50;;;;;;5123202;27;20063;-57
2023/07/30 11:24:24;;;;;;;18.47;9.53;;;27.60;99.90;;;;;;5030198;28;1432342;-57
2023/07/30 11:27:00;;;;;;;11.45;9.02;;;27.20;99.90;;;;;;5046681;28;20553;-57
2023/07/30 11:29:26;;;;;;;18.75;10.75;;;27.30;99.90;;;;;;5092547;28;20055;-57
2023/07/30 11:31:56;;;;;;;20.75;11.20;;;27.20;99.90;;;;;;5104224;27;20048;-57
2023/07/30 11:34:22;;;;;;;13.88;9.68;;;26.90;99.90;;;;;;5103808;28;20413;-57
2023/07/30 11:36:49;;;;;;;15.35;9.80;;;27.00;99.90;;;;;;5107714;28;20036;-57
2023/07/30 11:39:16;;;;;;;19.38;11.68;;;27.00;99.90;;;;;;5107937;28;20067;-57
2023/07/30 11:41:43;;;;;;;19.27;9.10;;;27.20;99.90;;;;;;5091428;28;20042;-57
2023/07/30 11:44:28;;;;;;;14.50;9.02;;;27.40;99.90;;;;;;5080938;28;20131;-57
2023/07/30 11:46:54;;;;;;;10.98;8.25;;;27.80;99.90;;;;;;5071706;28;20075;-57
2023/07/30 11:49:21;;;;;;;13.55;8.68;;;28.30;99.90;;;;;;5084672;28;20080;-57
2023/07/30 11:51:48;;;;;;;15.75;9.90;;;28.50;99.90;;;;;;5084918;28;20044;-57
2023/07/30 11:54:23;;;;;;;16.88;10.07;;;28.70;99.00;;;;;;5073878;28;20130;-57
2023/07/30 11:56:57;;;;;;;14.13;8.00;;;28.50;99.40;;;;;;5069398;28;20510;-57
2023/07/30 11:59:23;;;;;;;12.27;7.50;;;28.70;99.90;;;;;;5073492;28;20136;-58
2023/07/30 12:01:49;;;;;;;12.80;7.50;;;28.50;99.90;;;;;;5076175;28;20132;-57
2023/07/30 12:04:15;;;;;;;10.77;7.88;;;28.60;99.90;;;;;;5078553;28;20044;-58
2023/07/30 12:06:49;;;;;;;13.82;7.85;;;28.50;99.40;;;;;;5081056;28;20125;-58
2023/07/30 12:09:25;;;;;;;18.00;8.60;;;28.40;99.20;;;;;;5073663;28;20052;-57
2023/07/30 12:11:57;;;;;;;13.25;7.97;;;28.30;99.80;;;;;;5065998;28;20504;-57
2023/07/30 12:14:32;;;;;;;15.80;8.45;;;28.20;99.90;;;;;;5048524;28;20041;-57
2023/07/30 12:16:59;;;;;;;12.68;8.75;;;28.10;99.90;;;;;;5064473;28;20115;-57
2023/07/30 12:19:25;;;;;;;14.77;9.25;;;27.80;99.90;;;;;;5064552;28;20052;-57
2023/07/30 12:21:51;;;;;;;18.35;8.98;;;27.70;99.90;;;;;;5061085;28;20482;-57
2023/07/30 12:24:17;;;;;;;14.50;8.85;;;27.60;99.90;;;;;;5046478;28;20056;-57
2023/07/30 12:26:43;;;;;;;14.90;8.85;;;27.50;99.90;;;;;;5014778;28;20515;-57
2023/07/30 12:29:09;;;;;;;13.48;8.40;;;27.20;99.90;;;;;;5018684;28;20058;-58
2023/07/30 12:31:35;;;;;;;10.43;7.45;;;27.00;99.90;;;;;;4998979;28;20140;-57
2023/07/30 12:34:01;;;;;;;14.30;7.10;;;27.10;99.90;;;;;;4962101;28;20047;-57
2023/07/30 12:36:27;;;;;;;15.90;7.40;;;27.10;99.90;;;;;;5003673;28;20072;-57
2023/07/30 12:38:53;;;;;;;9.43;6.57;;;27.30;99.90;;;;;;5017470;28;20054;-57
2023/07/30 12:41:25;;;;;;;10.52;6.57;;;27.40;99.90;;;;;;5024813;28;20045;-57
2023/07/30 12:43:56;;;;;;;8.30;5.85;;;27.70;99.90;;;;;;5036816;28;20057;-57